Aérodrome :
LOGIN :

S'inscrire | Disclaimer

   EN    FR    IT 

 










Légende :    VFR   VFR Marginal   IFR   IFR Intensif   IFR Très Intensif
Visi : 
Plafond : 
>= 8 km
>= 3000ft
5 à 8 km
1000 à 3000 ft
1500m à 5 km
500 à 1000 ft
800 à 1500m
200 à 500 ft
< 800m
< 200 ft
Symboles :   Orages  Brouillard  Fortes neiges  Fortes précipitations  Vent > 20 kt
SIGMETs :   Divers  Orages  Givrage  Turbulence  Onde Orograph.  Cendres Volcan.







- Altitude de l'aérodrome : 138 ft
- Code IATA : BIO


LEBB - Bilbao

DERNIER METAR :
  • 251100Z 00000KT 9999 FEW022 SCT040 BKN060 20/16 Q1023 NOSIG

METARs EXPIRÉS :
  • 251030Z 00000KT 9999 FEW020 SCT030 BKN050 19/16 Q1023 NOSIG
  • 251000Z 32003KT 280V360 9000 FEW011 SCT025 BKN032 18/17 Q1023 NOSIG
  • 250930Z VRB02KT 9999 FEW022 SCT030 BKN040 19/16 Q1023 NOSIG
  • 250900Z VRB01KT 9999 FEW022 SCT027 BKN040 18/16 Q1023 NOSIG
  • 250830Z 00000KT 9999 -RA SCT018 SCT027 BKN040 17/16 Q1023 NOSIG

TAF TAF LEBB
Valide du 25 à 06h jusqu'au 26 à 06h UTC


250500Z 2506/2606 30007KT 9999 SCT020 TX21/2514Z TN14/2606Z
PROB30
TEMPO 2506/2606 3000 RADZ BKN014
Pas de NOTAMs connus pour ce terrain.



MET'MAP, la Météo Aéronautique d'un coup d'oeil ! - Copyright ORBIFLY Décembre 2007 - Disclaimer

ORBIFLY MET'MAP TEAM :

Programmation & Développement : Alexandra Zaïnal
Conception & Développement : Baudouin d'Aumeries
Co-Programmation & Développement : Marc-Olivier Méhu
Soutien technique & logistique : Manuel Goepfert

Contact : metmap@orbifly.com




SOURCES & CREDITS :

   NOAA